sensor_id;sensor_type;location;lat;lon;timestamp;temperature;humidity
74384;DHT22;62824;52.994;-3.936;2023-06-10T00:02:04;19.00;41.50
74384;DHT22;62824;52.994;-3.936;2023-06-10T00:04:29;19.00;40.90
74384;DHT22;62824;52.994;-3.936;2023-06-10T00:06:55;19.00;40.10
74384;DHT22;62824;52.994;-3.936;2023-06-10T00:09:22;18.90;41.60
74384;DHT22;62824;52.994;-3.936;2023-06-10T00:11:48;18.80;42.10
74384;DHT22;62824;52.994;-3.936;2023-06-10T00:14:14;18.90;44.70
74384;DHT22;62824;52.994;-3.936;2023-06-10T00:16:40;18.90;43.70
74384;DHT22;62824;52.994;-3.936;2023-06-10T00:19:06;18.80;43.80
74384;DHT22;62824;52.994;-3.936;2023-06-10T00:21:34;18.80;44.10
74384;DHT22;62824;52.994;-3.936;2023-06-10T00:24:09;18.80;45.10
74384;DHT22;62824;52.994;-3.936;2023-06-10T00:26:38;18.70;45.20
74384;DHT22;62824;52.994;-3.936;2023-06-10T00:29:05;18.70;47.00
74384;DHT22;62824;52.994;-3.936;2023-06-10T00:31:30;18.70;46.60
74384;DHT22;62824;52.994;-3.936;2023-06-10T00:33:56;18.70;47.00
74384;DHT22;62824;52.994;-3.936;2023-06-10T00:36:22;18.70;46.60
74384;DHT22;62824;52.994;-3.936;2023-06-10T00:38:48;18.70;48.80
74384;DHT22;62824;52.994;-3.936;2023-06-10T00:41:14;18.70;49.30
74384;DHT22;62824;52.994;-3.936;2023-06-10T00:43:39;18.70;49.50
74384;DHT22;62824;52.994;-3.936;2023-06-10T00:46:05;18.60;48.90
74384;DHT22;62824;52.994;-3.936;2023-06-10T00:48:32;18.60;47.40
74384;DHT22;62824;52.994;-3.936;2023-06-10T00:50:58;18.60;46.40
74384;DHT22;62824;52.994;-3.936;2023-06-10T00:53:26;18.50;44.60
74384;DHT22;62824;52.994;-3.936;2023-06-10T00:55:53;18.50;45.10
74384;DHT22;62824;52.994;-3.936;2023-06-10T00:58:19;18.50;44.80
74384;DHT22;62824;52.994;-3.936;2023-06-10T01:00:45;18.50;45.40
74384;DHT22;62824;52.994;-3.936;2023-06-10T01:03:12;18.30;46.20
74384;DHT22;62824;52.994;-3.936;2023-06-10T01:05:38;18.30;46.90
74384;DHT22;62824;52.994;-3.936;2023-06-10T01:10:42;18.30;47.20
74384;DHT22;62824;52.994;-3.936;2023-06-10T01:13:13;18.10;51.20
74384;DHT22;62824;52.994;-3.936;2023-06-10T01:15:39;18.20;49.90
74384;DHT22;62824;52.994;-3.936;2023-06-10T01:18:09;18.20;49.50
74384;DHT22;62824;52.994;-3.936;2023-06-10T01:20:41;18.20;51.20
74384;DHT22;62824;52.994;-3.936;2023-06-10T01:23:09;18.10;51.10
74384;DHT22;62824;52.994;-3.936;2023-06-10T01:25:47;18.10;52.70
74384;DHT22;62824;52.994;-3.936;2023-06-10T01:33:28;18.10;56.80
74384;DHT22;62824;52.994;-3.936;2023-06-10T01:35:57;18.00;56.00
74384;DHT22;62824;52.994;-3.936;2023-06-10T01:38:26;18.10;57.90
74384;DHT22;62824;52.994;-3.936;2023-06-10T01:40:53;18.10;57.90
74384;DHT22;62824;52.994;-3.936;2023-06-10T01:43:21;18.10;56.70
74384;DHT22;62824;52.994;-3.936;2023-06-10T01:45:46;18.10;55.60
74384;DHT22;62824;52.994;-3.936;2023-06-10T01:48:12;18.10;56.60
74384;DHT22;62824;52.994;-3.936;2023-06-10T01:50:38;18.00;55.70
74384;DHT22;62824;52.994;-3.936;2023-06-10T01:53:05;18.00;55.40
74384;DHT22;62824;52.994;-3.936;2023-06-10T01:55:33;18.00;54.90
74384;DHT22;62824;52.994;-3.936;2023-06-10T01:57:59;18.00;55.80
74384;DHT22;62824;52.994;-3.936;2023-06-10T02:00:24;17.80;57.70
74384;DHT22;62824;52.994;-3.936;2023-06-10T02:02:50;17.80;59.80
74384;DHT22;62824;52.994;-3.936;2023-06-10T02:05:16;17.90;56.70
74384;DHT22;62824;52.994;-3.936;2023-06-10T02:07:41;17.90;56.40
74384;DHT22;62824;52.994;-3.936;2023-06-10T02:10:08;17.60;61.60
74384;DHT22;62824;52.994;-3.936;2023-06-10T02:12:33;17.50;65.70
74384;DHT22;62824;52.994;-3.936;2023-06-10T02:14:59;17.60;62.20
74384;DHT22;62824;52.994;-3.936;2023-06-10T02:17:25;17.60;63.10
74384;DHT22;62824;52.994;-3.936;2023-06-10T02:19:51;17.60;62.40
74384;DHT22;62824;52.994;-3.936;2023-06-10T02:22:21;17.60;63.30
74384;DHT22;62824;52.994;-3.936;2023-06-10T02:24:47;17.50;65.70
74384;DHT22;62824;52.994;-3.936;2023-06-10T02:27:14;17.30;69.40
74384;DHT22;62824;52.994;-3.936;2023-06-10T02:29:40;17.10;74.50
74384;DHT22;62824;52.994;-3.936;2023-06-10T02:32:07;16.90;78.90
74384;DHT22;62824;52.994;-3.936;2023-06-10T02:34:33;16.80;83.10
74384;DHT22;62824;52.994;-3.936;2023-06-10T02:36:59;16.90;81.10
74384;DHT22;62824;52.994;-3.936;2023-06-10T02:39:25;16.80;81.70
74384;DHT22;62824;52.994;-3.936;2023-06-10T02:41:51;16.90;80.90
74384;DHT22;62824;52.994;-3.936;2023-06-10T02:44:18;17.00;77.90
74384;DHT22;62824;52.994;-3.936;2023-06-10T02:46:44;17.10;76.20
74384;DHT22;62824;52.994;-3.936;2023-06-10T02:49:10;17.20;74.10
74384;DHT22;62824;52.994;-3.936;2023-06-10T02:51:36;17.30;73.20
74384;DHT22;62824;52.994;-3.936;2023-06-10T02:54:02;17.40;71.90
74384;DHT22;62824;52.994;-3.936;2023-06-10T02:56:28;17.40;70.30
74384;DHT22;62824;52.994;-3.936;2023-06-10T02:58:54;17.50;69.50
74384;DHT22;62824;52.994;-3.936;2023-06-10T03:01:19;17.40;70.80
74384;DHT22;62824;52.994;-3.936;2023-06-10T03:03:46;17.40;72.60
74384;DHT22;62824;52.994;-3.936;2023-06-10T03:06:12;17.30;70.60
74384;DHT22;62824;52.994;-3.936;2023-06-10T03:08:38;17.00;76.80
74384;DHT22;62824;52.994;-3.936;2023-06-10T03:11:04;17.10;76.30
74384;DHT22;62824;52.994;-3.936;2023-06-10T03:13:30;17.00;76.40
74384;DHT22;62824;52.994;-3.936;2023-06-10T03:15:56;17.00;76.80
74384;DHT22;62824;52.994;-3.936;2023-06-10T03:18:26;17.00;77.20
74384;DHT22;62824;52.994;-3.936;2023-06-10T03:20:52;16.80;80.20
74384;DHT22;62824;52.994;-3.936;2023-06-10T03:23:18;16.60;84.80
74384;DHT22;62824;52.994;-3.936;2023-06-10T03:25:44;16.70;83.10
74384;DHT22;62824;52.994;-3.936;2023-06-10T03:28:11;16.70;83.70
74384;DHT22;62824;52.994;-3.936;2023-06-10T03:30:36;16.70;83.70
74384;DHT22;62824;52.994;-3.936;2023-06-10T03:33:02;16.80;81.90
74384;DHT22;62824;52.994;-3.936;2023-06-10T03:35:29;16.80;83.30
74384;DHT22;62824;52.994;-3.936;2023-06-10T03:37:54;17.00;81.90
74384;DHT22;62824;52.994;-3.936;2023-06-10T03:40:20;17.10;79.20
74384;DHT22;62824;52.994;-3.936;2023-06-10T03:42:46;17.20;77.00
74384;DHT22;62824;52.994;-3.936;2023-06-10T03:45:12;17.20;77.10
74384;DHT22;62824;52.994;-3.936;2023-06-10T03:47:38;17.30;76.10
74384;DHT22;62824;52.994;-3.936;2023-06-10T03:50:07;17.30;75.00
74384;DHT22;62824;52.994;-3.936;2023-06-10T03:52:34;17.30;75.10
74384;DHT22;62824;52.994;-3.936;2023-06-10T03:55:00;17.40;75.10
74384;DHT22;62824;52.994;-3.936;2023-06-10T03:57:26;17.40;75.70
74384;DHT22;62824;52.994;-3.936;2023-06-10T03:59:51;17.50;75.90
74384;DHT22;62824;52.994;-3.936;2023-06-10T04:02:17;17.60;74.10
74384;DHT22;62824;52.994;-3.936;2023-06-10T04:04:43;17.60;73.90
74384;DHT22;62824;52.994;-3.936;2023-06-10T04:07:09;17.60;74.20
74384;DHT22;62824;52.994;-3.936;2023-06-10T04:09:35;17.70;74.20
74384;DHT22;62824;52.994;-3.936;2023-06-10T04:12:02;17.70;74.70
74384;DHT22;62824;52.994;-3.936;2023-06-10T04:14:31;17.80;72.80
74384;DHT22;62824;52.994;-3.936;2023-06-10T04:16:57;17.90;73.10
74384;DHT22;62824;52.994;-3.936;2023-06-10T04:19:23;17.90;71.20
74384;DHT22;62824;52.994;-3.936;2023-06-10T04:21:48;17.90;71.10
74384;DHT22;62824;52.994;-3.936;2023-06-10T04:24:14;17.90;73.90
74384;DHT22;62824;52.994;-3.936;2023-06-10T04:26:40;17.90;71.80
74384;DHT22;62824;52.994;-3.936;2023-06-10T04:29:06;17.80;72.70
74384;DHT22;62824;52.994;-3.936;2023-06-10T04:31:31;17.90;74.70
74384;DHT22;62824;52.994;-3.936;2023-06-10T04:33:57;18.00;71.30
74384;DHT22;62824;52.994;-3.936;2023-06-10T04:36:23;18.00;72.40
74384;DHT22;62824;52.994;-3.936;2023-06-10T04:38:49;18.10;71.30
74384;DHT22;62824;52.994;-3.936;2023-06-10T04:41:17;18.00;70.50
74384;DHT22;62824;52.994;-3.936;2023-06-10T04:43:43;18.00;71.30
74384;DHT22;62824;52.994;-3.936;2023-06-10T04:46:09;18.00;72.20
74384;DHT22;62824;52.994;-3.936;2023-06-10T04:48:35;17.90;69.90
74384;DHT22;62824;52.994;-3.936;2023-06-10T04:51:02;18.00;74.10
74384;DHT22;62824;52.994;-3.936;2023-06-10T04:53:28;18.10;71.30
74384;DHT22;62824;52.994;-3.936;2023-06-10T04:55:54;18.10;71.30
74384;DHT22;62824;52.994;-3.936;2023-06-10T04:58:19;18.20;70.00
74384;DHT22;62824;52.994;-3.936;2023-06-10T05:00:45;18.20;69.80
74384;DHT22;62824;52.994;-3.936;2023-06-10T05:03:11;18.20;71.50
74384;DHT22;62824;52.994;-3.936;2023-06-10T05:05:37;18.30;71.00
74384;DHT22;62824;52.994;-3.936;2023-06-10T05:08:02;18.30;70.60
74384;DHT22;62824;52.994;-3.936;2023-06-10T05:10:28;18.30;70.00
74384;DHT22;62824;52.994;-3.936;2023-06-10T05:12:57;18.30;70.70
74384;DHT22;62824;52.994;-3.936;2023-06-10T05:15:24;18.20;71.80
74384;DHT22;62824;52.994;-3.936;2023-06-10T05:17:49;18.20;71.20
74384;DHT22;62824;52.994;-3.936;2023-06-10T05:20:16;18.20;70.00
74384;DHT22;62824;52.994;-3.936;2023-06-10T05:22:41;18.20;68.60
74384;DHT22;62824;52.994;-3.936;2023-06-10T05:25:07;18.20;71.70
74384;DHT22;62824;52.994;-3.936;2023-06-10T05:27:33;18.30;70.80
74384;DHT22;62824;52.994;-3.936;2023-06-10T05:29:59;18.30;70.80
74384;DHT22;62824;52.994;-3.936;2023-06-10T05:32:25;18.30;70.00
74384;DHT22;62824;52.994;-3.936;2023-06-10T05:34:50;18.40;69.80
74384;DHT22;62824;52.994;-3.936;2023-06-10T05:37:16;18.30;70.10
74384;DHT22;62824;52.994;-3.936;2023-06-10T05:39:42;18.30;70.50
74384;DHT22;62824;52.994;-3.936;2023-06-10T05:42:08;18.40;68.90
74384;DHT22;62824;52.994;-3.936;2023-06-10T05:44:34;18.40;67.50
74384;DHT22;62824;52.994;-3.936;2023-06-10T05:47:00;18.40;64.90
74384;DHT22;62824;52.994;-3.936;2023-06-10T05:49:26;18.40;67.10
74384;DHT22;62824;52.994;-3.936;2023-06-10T05:51:52;18.60;64.80
74384;DHT22;62824;52.994;-3.936;2023-06-10T05:54:18;18.70;62.80
74384;DHT22;62824;52.994;-3.936;2023-06-10T05:56:44;18.80;60.50
74384;DHT22;62824;52.994;-3.936;2023-06-10T05:59:10;18.80;59.70
74384;DHT22;62824;52.994;-3.936;2023-06-10T06:01:36;18.90;59.00
74384;DHT22;62824;52.994;-3.936;2023-06-10T06:04:02;19.00;58.10
74384;DHT22;62824;52.994;-3.936;2023-06-10T06:06:29;19.00;57.20
74384;DHT22;62824;52.994;-3.936;2023-06-10T06:08:54;19.00;57.50
74384;DHT22;62824;52.994;-3.936;2023-06-10T06:11:20;19.10;56.80
74384;DHT22;62824;52.994;-3.936;2023-06-10T06:13:46;19.10;57.50
74384;DHT22;62824;52.994;-3.936;2023-06-10T06:16:13;19.10;57.60
74384;DHT22;62824;52.994;-3.936;2023-06-10T06:18:39;19.20;55.40
74384;DHT22;62824;52.994;-3.936;2023-06-10T06:21:05;19.30;54.40
74384;DHT22;62824;52.994;-3.936;2023-06-10T06:23:31;19.40;53.40
74384;DHT22;62824;52.994;-3.936;2023-06-10T06:25:56;19.50;52.20
74384;DHT22;62824;52.994;-3.936;2023-06-10T06:28:22;19.50;52.00
74384;DHT22;62824;52.994;-3.936;2023-06-10T06:30:48;19.50;51.50
74384;DHT22;62824;52.994;-3.936;2023-06-10T06:33:13;19.60;51.50
74384;DHT22;62824;52.994;-3.936;2023-06-10T06:35:39;19.80;48.90
74384;DHT22;62824;52.994;-3.936;2023-06-10T06:38:05;20.20;42.20
74384;DHT22;62824;52.994;-3.936;2023-06-10T06:40:31;20.50;37.20
74384;DHT22;62824;52.994;-3.936;2023-06-10T06:42:57;20.70;33.20
74384;DHT22;62824;52.994;-3.936;2023-06-10T06:45:23;20.80;32.80
74384;DHT22;62824;52.994;-3.936;2023-06-10T06:47:48;20.80;32.10
74384;DHT22;62824;52.994;-3.936;2023-06-10T06:50:14;20.80;32.40
74384;DHT22;62824;52.994;-3.936;2023-06-10T06:52:40;20.80;32.50
74384;DHT22;62824;52.994;-3.936;2023-06-10T06:55:06;20.80;32.60
74384;DHT22;62824;52.994;-3.936;2023-06-10T06:57:32;20.80;33.00
74384;DHT22;62824;52.994;-3.936;2023-06-10T06:59:58;20.80;33.00
74384;DHT22;62824;52.994;-3.936;2023-06-10T07:02:24;20.90;33.90
74384;DHT22;62824;52.994;-3.936;2023-06-10T07:04:50;20.80;33.10
74384;DHT22;62824;52.994;-3.936;2023-06-10T07:07:15;20.90;31.30
74384;DHT22;62824;52.994;-3.936;2023-06-10T07:09:41;21.10;30.60
74384;DHT22;62824;52.994;-3.936;2023-06-10T07:12:07;21.30;28.90
74384;DHT22;62824;52.994;-3.936;2023-06-10T07:14:33;21.40;29.20
74384;DHT22;62824;52.994;-3.936;2023-06-10T07:16:59;21.20;31.20
74384;DHT22;62824;52.994;-3.936;2023-06-10T07:19:25;21.40;32.60
74384;DHT22;62824;52.994;-3.936;2023-06-10T07:21:50;21.50;30.00
74384;DHT22;62824;52.994;-3.936;2023-06-10T07:24:16;21.70;28.60
74384;DHT22;62824;52.994;-3.936;2023-06-10T07:26:42;21.80;26.90
74384;DHT22;62824;52.994;-3.936;2023-06-10T07:29:08;21.80;27.40
74384;DHT22;62824;52.994;-3.936;2023-06-10T07:31:33;21.90;27.10
74384;DHT22;62824;52.994;-3.936;2023-06-10T07:33:59;21.90;26.70
74384;DHT22;62824;52.994;-3.936;2023-06-10T07:36:25;21.90;26.90
74384;DHT22;62824;52.994;-3.936;2023-06-10T07:38:54;22.10;26.30
74384;DHT22;62824;52.994;-3.936;2023-06-10T07:41:20;22.30;25.50
74384;DHT22;62824;52.994;-3.936;2023-06-10T07:43:48;22.40;24.90
74384;DHT22;62824;52.994;-3.936;2023-06-10T07:46:13;22.50;24.60
74384;DHT22;62824;52.994;-3.936;2023-06-10T07:48:39;22.60;24.40
74384;DHT22;62824;52.994;-3.936;2023-06-10T07:51:05;22.50;24.60
74384;DHT22;62824;52.994;-3.936;2023-06-10T07:53:30;22.20;25.10
74384;DHT22;62824;52.994;-3.936;2023-06-10T07:55:56;22.20;25.20
74384;DHT22;62824;52.994;-3.936;2023-06-10T07:58:22;22.10;25.10
74384;DHT22;62824;52.994;-3.936;2023-06-10T08:00:48;22.20;25.10
74384;DHT22;62824;52.994;-3.936;2023-06-10T08:03:13;22.40;24.50
74384;DHT22;62824;52.994;-3.936;2023-06-10T08:05:39;22.50;24.20
74384;DHT22;62824;52.994;-3.936;2023-06-10T08:08:06;22.60;24.10
74384;DHT22;62824;52.994;-3.936;2023-06-10T08:10:32;22.60;24.20
74384;DHT22;62824;52.994;-3.936;2023-06-10T08:12:58;22.80;23.90
74384;DHT22;62824;52.994;-3.936;2023-06-10T08:15:24;22.90;23.40
74384;DHT22;62824;52.994;-3.936;2023-06-10T08:17:50;23.00;22.90
74384;DHT22;62824;52.994;-3.936;2023-06-10T08:20:17;23.00;22.90
74384;DHT22;62824;52.994;-3.936;2023-06-10T08:22:43;23.10;22.90
74384;DHT22;62824;52.994;-3.936;2023-06-10T08:25:15;23.00;23.10
74384;DHT22;62824;52.994;-3.936;2023-06-10T08:27:40;23.00;22.90
74384;DHT22;62824;52.994;-3.936;2023-06-10T08:30:07;23.30;22.60
74384;DHT22;62824;52.994;-3.936;2023-06-10T08:32:33;23.40;22.30
74384;DHT22;62824;52.994;-3.936;2023-06-10T08:34:59;23.50;22.30
74384;DHT22;62824;52.994;-3.936;2023-06-10T08:37:24;23.50;21.80
74384;DHT22;62824;52.994;-3.936;2023-06-10T08:39:50;23.60;21.70
74384;DHT22;62824;52.994;-3.936;2023-06-10T08:42:23;23.50;21.80
74384;DHT22;62824;52.994;-3.936;2023-06-10T08:44:56;23.60;21.80
74384;DHT22;62824;52.994;-3.936;2023-06-10T08:47:23;23.80;21.50
74384;DHT22;62824;52.994;-3.936;2023-06-10T08:49:50;23.90;21.40
74384;DHT22;62824;52.994;-3.936;2023-06-10T08:52:19;23.90;21.40
74384;DHT22;62824;52.994;-3.936;2023-06-10T08:55:31;24.10;21.10
74384;DHT22;62824;52.994;-3.936;2023-06-10T08:57:37;24.50;20.30
74384;DHT22;62824;52.994;-3.936;2023-06-10T09:00:05;24.70;19.70
74384;DHT22;62824;52.994;-3.936;2023-06-10T09:02:31;24.70;19.50
74384;DHT22;62824;52.994;-3.936;2023-06-10T09:05:01;24.80;19.30
74384;DHT22;62824;52.994;-3.936;2023-06-10T09:07:30;25.00;18.90
74384;DHT22;62824;52.994;-3.936;2023-06-10T09:10:02;25.00;18.50
74384;DHT22;62824;52.994;-3.936;2023-06-10T09:12:35;25.10;17.80
74384;DHT22;62824;52.994;-3.936;2023-06-10T09:15:06;25.40;17.10
74384;DHT22;62824;52.994;-3.936;2023-06-10T09:17:32;25.80;16.60
74384;DHT22;62824;52.994;-3.936;2023-06-10T09:20:00;26.30;15.80
74384;DHT22;62824;52.994;-3.936;2023-06-10T09:22:31;26.70;15.20
74384;DHT22;62824;52.994;-3.936;2023-06-10T09:25:11;26.90;14.20
74384;DHT22;62824;52.994;-3.936;2023-06-10T09:27:51;27.00;14.00
74384;DHT22;62824;52.994;-3.936;2023-06-10T09:30:26;27.20;13.00
74384;DHT22;62824;52.994;-3.936;2023-06-10T09:32:57;27.40;12.70
74384;DHT22;62824;52.994;-3.936;2023-06-10T09:35:27;27.60;12.00
74384;DHT22;62824;52.994;-3.936;2023-06-10T09:37:58;27.60;12.10
74384;DHT22;62824;52.994;-3.936;2023-06-10T09:40:24;27.40;12.20
74384;DHT22;62824;52.994;-3.936;2023-06-10T09:43:00;27.40;11.70
74384;DHT22;62824;52.994;-3.936;2023-06-10T09:45:32;27.40;11.30
74384;DHT22;62824;52.994;-3.936;2023-06-10T09:47:58;27.40;11.50
74384;DHT22;62824;52.994;-3.936;2023-06-10T09:50:24;27.40;12.00
74384;DHT22;62824;52.994;-3.936;2023-06-10T09:52:50;27.50;11.60
74384;DHT22;62824;52.994;-3.936;2023-06-10T09:55:17;27.50;11.40
74384;DHT22;62824;52.994;-3.936;2023-06-10T09:57:43;27.40;11.40
74384;DHT22;62824;52.994;-3.936;2023-06-10T10:00:14;27.60;11.10
74384;DHT22;62824;52.994;-3.936;2023-06-10T10:02:49;27.80;10.50
74384;DHT22;62824;52.994;-3.936;2023-06-10T10:05:17;27.80;10.60
74384;DHT22;62824;52.994;-3.936;2023-06-10T10:07:44;28.10;10.70
74384;DHT22;62824;52.994;-3.936;2023-06-10T10:10:11;27.50;11.40
74384;DHT22;62824;52.994;-3.936;2023-06-10T10:12:38;27.20;12.00
74384;DHT22;62824;52.994;-3.936;2023-06-10T10:15:09;27.30;12.20
74384;DHT22;62824;52.994;-3.936;2023-06-10T10:17:44;27.40;11.80
74384;DHT22;62824;52.994;-3.936;2023-06-10T10:20:14;27.70;11.30
74384;DHT22;62824;52.994;-3.936;2023-06-10T10:22:43;27.70;10.80
74384;DHT22;62824;52.994;-3.936;2023-06-10T10:25:25;28.00;11.20
74384;DHT22;62824;52.994;-3.936;2023-06-10T10:30:39;28.30;10.50
74384;DHT22;62824;52.994;-3.936;2023-06-10T10:33:10;28.60;10.00
74384;DHT22;62824;52.994;-3.936;2023-06-10T10:35:38;28.70;9.90
74384;DHT22;62824;52.994;-3.936;2023-06-10T10:38:05;28.50;8.70
74384;DHT22;62824;52.994;-3.936;2023-06-10T10:40:32;28.50;7.80
74384;DHT22;62824;52.994;-3.936;2023-06-10T10:42:59;28.20;8.00
74384;DHT22;62824;52.994;-3.936;2023-06-10T10:45:28;28.20;8.00
74384;DHT22;62824;52.994;-3.936;2023-06-10T10:47:54;28.40;7.90
74384;DHT22;62824;52.994;-3.936;2023-06-10T10:50:22;28.50;7.40
74384;DHT22;62824;52.994;-3.936;2023-06-10T10:53:00;28.10;7.40
74384;DHT22;62824;52.994;-3.936;2023-06-10T10:55:27;27.80;7.80
74384;DHT22;62824;52.994;-3.936;2023-06-10T10:58:03;27.70;8.20
74384;DHT22;62824;52.994;-3.936;2023-06-10T11:00:35;27.80;8.60
74384;DHT22;62824;52.994;-3.936;2023-06-10T11:03:07;27.80;8.80
74384;DHT22;62824;52.994;-3.936;2023-06-10T11:05:48;27.70;9.30
74384;DHT22;62824;52.994;-3.936;2023-06-10T11:11:00;27.70;9.00
74384;DHT22;62824;52.994;-3.936;2023-06-10T11:13:29;27.90;8.70
74384;DHT22;62824;52.994;-3.936;2023-06-10T11:15:58;27.80;9.10
74384;DHT22;62824;52.994;-3.936;2023-06-10T11:18:38;28.20;9.30
74384;DHT22;62824;52.994;-3.936;2023-06-10T11:21:05;28.20;8.70
74384;DHT22;62824;52.994;-3.936;2023-06-10T11:23:34;28.00;9.00
74384;DHT22;62824;52.994;-3.936;2023-06-10T11:26:30;28.00;9.20
74384;DHT22;62824;52.994;-3.936;2023-06-10T11:31:30;28.10;9.00
74384;DHT22;62824;52.994;-3.936;2023-06-10T11:33:58;28.20;8.20
74384;DHT22;62824;52.994;-3.936;2023-06-10T11:36:25;28.70;7.40
74384;DHT22;62824;52.994;-3.936;2023-06-10T11:39:18;29.00;6.80
74384;DHT22;62824;52.994;-3.936;2023-06-10T11:41:45;28.70;6.90
74384;DHT22;62824;52.994;-3.936;2023-06-10T11:44:13;28.70;6.60
74384;DHT22;62824;52.994;-3.936;2023-06-10T11:46:39;29.40;6.40
74384;DHT22;62824;52.994;-3.936;2023-06-10T11:49:06;29.80;5.80
74384;DHT22;62824;52.994;-3.936;2023-06-10T11:51:36;29.80;5.30
74384;DHT22;62824;52.994;-3.936;2023-06-10T11:54:04;29.20;5.30
74384;DHT22;62824;52.994;-3.936;2023-06-10T11:56:31;29.60;5.60
74384;DHT22;62824;52.994;-3.936;2023-06-10T11:59:05;29.70;6.10
74384;DHT22;62824;52.994;-3.936;2023-06-10T12:01:34;30.10;4.70
74384;DHT22;62824;52.994;-3.936;2023-06-10T12:04:05;30.10;4.60
74384;DHT22;62824;52.994;-3.936;2023-06-10T12:06:48;30.00;4.60
74384;DHT22;62824;52.994;-3.936;2023-06-10T12:09:21;30.20;4.00
74384;DHT22;62824;52.994;-3.936;2023-06-10T12:11:58;30.50;4.20
74384;DHT22;62824;52.994;-3.936;2023-06-10T12:14:57;30.60;3.80
74384;DHT22;62824;52.994;-3.936;2023-06-10T12:17:43;30.60;4.30
74384;DHT22;62824;52.994;-3.936;2023-06-10T12:20:30;30.60;4.20
74384;DHT22;62824;52.994;-3.936;2023-06-10T12:23:00;30.70;4.00
74384;DHT22;62824;52.994;-3.936;2023-06-10T12:25:28;30.50;4.10
74384;DHT22;62824;52.994;-3.936;2023-06-10T12:27:56;29.80;4.50
74384;DHT22;62824;52.994;-3.936;2023-06-10T12:30:24;29.70;4.60
74384;DHT22;62824;52.994;-3.936;2023-06-10T12:32:51;29.10;5.80
74384;DHT22;62824;52.994;-3.936;2023-06-10T12:35:27;29.20;6.50
74384;DHT22;62824;52.994;-3.936;2023-06-10T12:38:04;29.50;5.60
74384;DHT22;62824;52.994;-3.936;2023-06-10T12:40:32;29.70;5.50
74384;DHT22;62824;52.994;-3.936;2023-06-10T12:42:59;29.80;5.40
74384;DHT22;62824;52.994;-3.936;2023-06-10T12:48:11;30.00;5.50
74384;DHT22;62824;52.994;-3.936;2023-06-10T12:50:38;30.20;5.00
74384;DHT22;62824;52.994;-3.936;2023-06-10T12:53:04;30.10;5.20
74384;DHT22;62824;52.994;-3.936;2023-06-10T12:55:31;30.40;5.00
74384;DHT22;62824;52.994;-3.936;2023-06-10T12:57:58;30.30;5.50
74384;DHT22;62824;52.994;-3.936;2023-06-10T13:00:24;30.50;5.10
74384;DHT22;62824;52.994;-3.936;2023-06-10T13:02:56;30.60;5.20
74384;DHT22;62824;52.994;-3.936;2023-06-10T13:05:22;29.90;5.90
74384;DHT22;62824;52.994;-3.936;2023-06-10T13:07:48;29.60;6.40
74384;DHT22;62824;52.994;-3.936;2023-06-10T13:10:15;29.40;6.40
74384;DHT22;62824;52.994;-3.936;2023-06-10T13:12:44;29.20;6.50
74384;DHT22;62824;52.994;-3.936;2023-06-10T13:15:12;29.20;6.70
74384;DHT22;62824;52.994;-3.936;2023-06-10T13:17:38;29.50;6.60
74384;DHT22;62824;52.994;-3.936;2023-06-10T13:20:08;29.60;6.50
74384;DHT22;62824;52.994;-3.936;2023-06-10T13:22:36;29.60;6.70
74384;DHT22;62824;52.994;-3.936;2023-06-10T13:25:03;29.20;7.40
74384;DHT22;62824;52.994;-3.936;2023-06-10T13:27:29;28.70;8.90
74384;DHT22;62824;52.994;-3.936;2023-06-10T13:29:57;29.10;9.10
74384;DHT22;62824;52.994;-3.936;2023-06-10T13:32:30;29.20;8.40
74384;DHT22;62824;52.994;-3.936;2023-06-10T13:34:56;29.30;9.10
74384;DHT22;62824;52.994;-3.936;2023-06-10T13:37:22;29.40;8.80
74384;DHT22;62824;52.994;-3.936;2023-06-10T13:39:48;29.30;8.90
74384;DHT22;62824;52.994;-3.936;2023-06-10T13:42:19;29.40;8.70
74384;DHT22;62824;52.994;-3.936;2023-06-10T13:44:46;29.40;8.60
74384;DHT22;62824;52.994;-3.936;2023-06-10T13:47:16;28.90;8.40
74384;DHT22;62824;52.994;-3.936;2023-06-10T13:49:42;28.80;9.50
74384;DHT22;62824;52.994;-3.936;2023-06-10T13:52:08;28.40;10.40
74384;DHT22;62824;52.994;-3.936;2023-06-10T13:54:37;28.30;10.70
74384;DHT22;62824;52.994;-3.936;2023-06-10T13:57:03;27.80;11.30
74384;DHT22;62824;52.994;-3.936;2023-06-10T13:59:29;27.50;11.60
74384;DHT22;62824;52.994;-3.936;2023-06-10T14:01:55;26.90;12.10
74384;DHT22;62824;52.994;-3.936;2023-06-10T14:04:22;26.60;12.30
74384;DHT22;62824;52.994;-3.936;2023-06-10T14:06:47;26.60;12.60
74384;DHT22;62824;52.994;-3.936;2023-06-10T14:09:13;26.50;12.60
74384;DHT22;62824;52.994;-3.936;2023-06-10T14:11:40;26.40;12.50
74384;DHT22;62824;52.994;-3.936;2023-06-10T14:14:05;26.60;12.60
74384;DHT22;62824;52.994;-3.936;2023-06-10T14:16:32;26.90;12.30
74384;DHT22;62824;52.994;-3.936;2023-06-10T14:18:57;26.80;13.30
74384;DHT22;62824;52.994;-3.936;2023-06-10T14:21:23;26.40;12.20
74384;DHT22;62824;52.994;-3.936;2023-06-10T14:23:49;26.00;13.20
74384;DHT22;62824;52.994;-3.936;2023-06-10T14:26:17;25.80;13.40
74384;DHT22;62824;52.994;-3.936;2023-06-10T14:28:43;25.70;14.40
74384;DHT22;62824;52.994;-3.936;2023-06-10T14:31:08;25.90;14.20
74384;DHT22;62824;52.994;-3.936;2023-06-10T14:33:34;26.10;13.80
74384;DHT22;62824;52.994;-3.936;2023-06-10T14:36:00;26.00;13.90
74384;DHT22;62824;52.994;-3.936;2023-06-10T14:38:26;26.30;13.40
74384;DHT22;62824;52.994;-3.936;2023-06-10T14:40:52;26.60;13.30
74384;DHT22;62824;52.994;-3.936;2023-06-10T14:43:18;26.40;13.70
74384;DHT22;62824;52.994;-3.936;2023-06-10T14:45:44;26.70;13.40
74384;DHT22;62824;52.994;-3.936;2023-06-10T14:48:11;27.40;12.80
74384;DHT22;62824;52.994;-3.936;2023-06-10T14:50:38;27.40;12.40
74384;DHT22;62824;52.994;-3.936;2023-06-10T14:53:06;27.00;12.60
74384;DHT22;62824;52.994;-3.936;2023-06-10T14:55:31;26.90;13.20
74384;DHT22;62824;52.994;-3.936;2023-06-10T14:57:57;26.60;13.70
74384;DHT22;62824;52.994;-3.936;2023-06-10T15:00:23;26.30;14.50
74384;DHT22;62824;52.994;-3.936;2023-06-10T15:02:51;26.20;14.90
74384;DHT22;62824;52.994;-3.936;2023-06-10T15:05:17;25.90;15.60
74384;DHT22;62824;52.994;-3.936;2023-06-10T15:07:45;26.10;16.00
74384;DHT22;62824;52.994;-3.936;2023-06-10T15:10:11;26.40;15.20
74384;DHT22;62824;52.994;-3.936;2023-06-10T15:12:37;26.20;15.80
74384;DHT22;62824;52.994;-3.936;2023-06-10T15:15:03;26.10;16.10
74384;DHT22;62824;52.994;-3.936;2023-06-10T15:17:29;26.10;16.20
74384;DHT22;62824;52.994;-3.936;2023-06-10T15:19:55;26.40;15.90
74384;DHT22;62824;52.994;-3.936;2023-06-10T15:22:21;26.40;15.60
74384;DHT22;62824;52.994;-3.936;2023-06-10T15:24:47;26.40;15.50
74384;DHT22;62824;52.994;-3.936;2023-06-10T15:27:13;26.40;15.30
74384;DHT22;62824;52.994;-3.936;2023-06-10T15:29:39;26.40;15.50
74384;DHT22;62824;52.994;-3.936;2023-06-10T15:32:05;26.50;15.30
74384;DHT22;62824;52.994;-3.936;2023-06-10T15:34:31;26.40;15.30
74384;DHT22;62824;52.994;-3.936;2023-06-10T15:36:57;26.00;16.60
74384;DHT22;62824;52.994;-3.936;2023-06-10T15:39:23;25.40;17.20
74384;DHT22;62824;52.994;-3.936;2023-06-10T15:41:50;25.60;17.70